Time;durP1;ratioP1;P1;durP2;ratioP2;P2;SDS_P1;SDS_P2;PMS_P1;PMS_P2;Temp;Humidity;BMP_temperature;BMP_pressure;BME280_temperature;BME280_humidity;BME280_pressure;Samples;Min_cycle;Max_cycle;Signal;HPM_P1;HPM_P2
2023/08/18 00:04:51;;;;;;;2.70;1.23;;;;;;;16.40;100.00;101975.72;10479426;28;20477;-65
2023/08/18 00:09:51;;;;;;;4.43;1.80;;;;;;;16.31;100.00;101953.97;10471110;28;20059;-65
2023/08/18 00:14:53;;;;;;;2.83;1.55;;;;;;;16.40;100.00;101961.81;10459380;28;20045;-65
2023/08/18 00:19:53;;;;;;;3.92;1.00;;;;;;;16.36;100.00;101949.56;10459581;28;20047;-64
2023/08/18 00:24:55;;;;;;;2.33;1.23;;;;;;;16.39;100.00;101949.03;10467544;28;20058;-64
2023/08/18 00:29:56;;;;;;;4.07;1.40;;;;;;;16.37;100.00;101956.78;10474538;28;20037;-66
2023/08/18 00:34:57;;;;;;;1.88;1.30;;;;;;;16.35;100.00;101945.97;10472695;28;20059;-63
2023/08/18 00:39:57;;;;;;;2.30;1.27;;;;;;;16.35;100.00;101945.97;10476933;28;20097;-65
2023/08/18 00:44:57;;;;;;;2.20;1.40;;;;;;;16.31;100.00;101942.88;10477825;28;20056;-65
2023/08/18 00:49:58;;;;;;;2.83;1.77;;;;;;;16.06;100.00;101909.31;10465093;28;20033;-65
2023/08/18 00:54:58;;;;;;;2.10;1.60;;;;;;;16.26;100.00;101939.22;10477318;28;20048;-65
2023/08/18 00:59:59;;;;;;;3.38;1.63;;;;;;;16.23;100.00;101937.81;10478000;28;20511;-65
2023/08/18 01:05:00;;;;;;;3.58;1.67;;;;;;;16.20;100.00;101934.72;10478783;28;20072;-65
2023/08/18 01:10:01;;;;;;;2.40;1.50;;;;;;;16.19;100.00;101921.94;10485655;28;20100;-65
2023/08/18 01:15:26;;;;;;;2.65;1.77;;;;;;;16.20;100.00;101918.03;10478783;28;20037;-64
2023/08/18 01:20:27;;;;;;;3.53;1.65;;;;;;;16.16;100.00;101906.63;10455461;28;20131;-65
2023/08/18 01:25:27;;;;;;;3.72;2.97;;;;;;;16.12;100.00;101899.91;10476318;28;20192;-64
2023/08/18 01:30:48;;;;;;;2.75;2.08;;;;;;;16.10;100.00;101896.56;10479232;28;20533;-65
2023/08/18 01:35:48;;;;;;;2.40;1.95;;;;;;;16.09;100.00;101892.97;10422475;28;20038;-65
2023/08/18 01:40:49;;;;;;;3.60;1.80;;;;;;;16.11;100.00;101892.72;10441456;28;20037;-64
2023/08/18 01:45:49;;;;;;;5.20;2.30;;;;;;;16.10;100.00;101879.91;10393124;28;20068;-65
2023/08/18 01:50:50;;;;;;;3.92;2.47;;;;;;;16.07;100.00;101880.47;10442914;28;20037;-65
2023/08/18 01:55:50;;;;;;;4.38;2.42;;;;;;;16.07;100.00;101870.19;10433375;28;20041;-65
2023/08/18 02:00:57;;;;;;;3.95;2.03;;;;;;;16.04;100.00;101873.50;10441395;28;20041;-65
2023/08/18 02:05:58;;;;;;;5.28;2.50;;;;;;;16.09;100.00;101861.59;10434679;28;20037;-64
2023/08/18 02:11:02;;;;;;;5.15;2.65;;;;;;;16.11;100.00;101862.97;10406132;28;20093;-65
2023/08/18 02:16:03;;;;;;;6.72;2.88;;;;;;;16.14;100.00;101865.25;10474156;28;20063;-65
2023/08/18 02:21:03;;;;;;;5.45;2.92;;;;;;;16.17;100.00;101852.75;10475145;28;20043;-65
2023/08/18 02:26:04;;;;;;;12.10;4.00;;;;;;;16.15;100.00;101854.97;10464160;28;20043;-64
2023/08/18 02:31:06;;;;;;;4.50;3.00;;;;;;;16.12;100.00;101852.69;10476490;28;20037;-65
2023/08/18 02:36:07;;;;;;;4.88;3.13;;;;;;;16.01;100.00;101823.19;10475150;28;20057;-65
2023/08/18 02:41:07;;;;;;;5.43;3.10;;;;;;;16.04;100.00;101847.66;10478587;28;20068;-65
2023/08/18 02:46:08;;;;;;;4.10;3.28;;;;;;;16.00;100.00;101840.94;10475715;28;20041;-65
2023/08/18 02:51:09;;;;;;;5.57;3.28;;;;;;;15.99;100.00;101830.97;10456953;28;20071;-65
2023/08/18 02:56:09;;;;;;;4.68;2.92;;;;;;;16.00;100.00;101835.41;10458883;28;20504;-66
2023/08/18 03:01:10;;;;;;;4.47;3.40;;;;;;;16.00;100.00;101832.63;10462631;28;20150;-65
2023/08/18 03:06:10;;;;;;;6.85;3.38;;;;;;;16.02;100.00;101844.28;10479796;28;20459;-65
2023/08/18 03:11:11;;;;;;;6.32;3.88;;;;;;;16.01;100.00;101835.13;10457453;28;20127;-65
2023/08/18 03:16:11;;;;;;;6.30;3.65;;;;;;;16.05;100.00;101841.00;10465942;28;20072;-65
2023/08/18 03:21:12;;;;;;;8.60;3.13;;;;;;;15.99;100.00;101840.13;10480652;28;20044;-65
2023/08/18 03:26:12;;;;;;;6.88;4.32;;;;;;;16.06;100.00;101845.44;10440349;28;20044;-65
2023/08/18 03:31:13;;;;;;;7.00;3.97;;;;;;;16.06;100.00;101839.88;10476787;28;20033;-64
2023/08/18 03:36:13;;;;;;;6.88;4.28;;;;;;;15.87;100.00;101809.75;10478753;28;20051;-65
2023/08/18 03:41:14;;;;;;;5.95;3.70;;;;;;;16.08;100.00;101837.66;10491676;28;20096;-65
2023/08/18 03:46:27;;;;;;;8.57;4.32;;;;;;;16.03;100.00;101834.88;10474149;28;20051;-65
2023/08/18 03:51:28;;;;;;;9.43;3.88;;;;;;;16.05;100.00;101836.28;10466238;28;20120;-65
2023/08/18 03:56:28;;;;;;;9.32;3.95;;;;;;;16.10;100.00;101832.69;10477875;28;20125;-65
2023/08/18 04:01:29;;;;;;;6.40;4.78;;;;;;;16.10;100.00;101825.22;10475980;28;20029;-64
2023/08/18 04:06:29;;;;;;;8.27;4.07;;;;;;;16.12;100.00;101828.56;10476158;28;20076;-65
2023/08/18 04:11:30;;;;;;;8.65;4.18;;;;;;;16.14;100.00;101828.25;10472699;28;20064;-66
2023/08/18 04:16:33;;;;;;;5.72;4.43;;;;;;;16.15;100.00;101827.19;10469445;28;20060;-65
2023/08/18 04:21:34;;;;;;;6.53;4.45;;;;;;;16.14;100.00;101825.50;10472415;28;20041;-65
2023/08/18 04:26:37;;;;;;;10.88;4.60;;;;;;;16.15;100.00;101816.06;10477134;28;20062;-65
2023/08/18 04:31:37;;;;;;;9.32;4.72;;;;;;;16.14;100.00;101817.16;10471282;28;20060;-65
2023/08/18 04:36:38;;;;;;;5.28;4.05;;;;;;;16.15;100.00;101821.63;10454621;28;20056;-65
2023/08/18 04:41:38;;;;;;;7.05;3.58;;;;;;;16.17;100.00;101819.41;10479456;28;20047;-64
2023/08/18 04:46:39;;;;;;;9.40;3.58;;;;;;;16.22;100.00;101822.19;10469596;28;20095;-65
2023/08/18 04:51:40;;;;;;;6.28;4.10;;;;;;;16.24;100.00;101814.44;10471801;28;20029;-65
2023/08/18 04:56:41;;;;;;;7.20;3.28;;;;;;;16.26;100.00;101809.44;10458933;28;20048;-65
2023/08/18 05:01:42;;;;;;;5.03;3.75;;;;;;;16.30;100.00;101818.09;10469585;28;20029;-64
2023/08/18 05:06:42;;;;;;;4.85;3.33;;;;;;;16.29;100.00;101817.25;10472616;28;20033;-65
2023/08/18 05:11:43;;;;;;;6.25;3.17;;;;;;;16.34;100.00;101814.50;10490463;28;20067;-65
2023/08/18 05:16:43;;;;;;;8.63;3.58;;;;;;;16.31;100.00;101801.16;10470676;28;20401;-65
2023/08/18 05:21:44;;;;;;;7.57;3.97;;;;;;;16.39;100.00;101826.72;10469961;28;20041;-65
2023/08/18 05:26:44;;;;;;;7.80;3.75;;;;;;;16.41;100.00;101818.97;10471677;28;20048;-65
2023/08/18 05:31:45;;;;;;;6.72;3.70;;;;;;;16.44;100.00;101824.81;10478520;28;20052;-64
2023/08/18 05:36:47;;;;;;;8.73;4.25;;;;;;;16.48;100.00;101825.97;10453416;28;20045;-65
2023/08/18 05:41:47;;;;;;;5.88;3.33;;;;;;;16.51;100.00;101813.44;10446228;28;20037;-65
2023/08/18 05:46:48;;;;;;;4.68;2.88;;;;;;;16.56;100.00;101816.28;10418458;28;20048;-65
2023/08/18 05:51:48;;;;;;;8.77;3.30;;;;;;;16.64;100.00;101818.53;10435522;28;20042;-64
2023/08/18 05:56:49;;;;;;;7.15;3.38;;;;;;;16.70;100.00;101811.88;10444344;28;20032;-65
2023/08/18 06:01:50;;;;;;;6.32;3.42;;;;;;;16.75;100.00;101824.94;10439050;28;20033;-65
2023/08/18 06:06:50;;;;;;;5.93;3.53;;;;;;;16.80;100.00;101813.00;10438084;28;20588;-64
2023/08/18 06:11:51;;;;;;;7.65;3.95;;;;;;;16.88;100.00;101818.91;10441176;28;20045;-65
2023/08/18 06:16:51;;;;;;;9.73;4.13;;;;;;;17.02;100.00;101816.44;10439242;28;20033;-65
2023/08/18 06:21:52;;;;;;;6.15;4.25;;;;;;;17.14;100.00;101811.44;10431727;28;20148;-65
2023/08/18 06:26:52;;;;;;;6.43;3.20;;;;;;;17.31;100.00;101807.56;10419959;28;20052;-65
2023/08/18 06:31:52;;;;;;;7.05;3.60;;;;;;;17.37;100.00;101814.81;10427021;28;22410;-64
2023/08/18 06:36:53;;;;;;;5.18;3.25;;;;;;;17.42;100.00;101816.75;10425341;28;20052;-65
2023/08/18 06:41:54;;;;;;;7.63;3.25;;;;;;;17.35;100.00;101817.88;10423136;28;20064;-64
2023/08/18 06:46:54;;;;;;;7.57;3.47;;;;;;;17.37;100.00;101816.78;10417468;28;20569;-64
2023/08/18 06:51:55;;;;;;;9.57;3.78;;;;;;;17.45;100.00;101814.28;10419692;28;20033;-64
2023/08/18 06:56:55;;;;;;;7.15;3.75;;;;;;;17.54;100.00;101807.00;10441758;28;20044;-65
2023/08/18 07:01:56;;;;;;;7.65;3.30;;;;;;;17.63;100.00;101812.03;10424670;28;20037;-65
2023/08/18 07:06:56;;;;;;;6.07;3.65;;;;;;;17.78;100.00;101819.53;10427336;28;20038;-64
2023/08/18 07:11:57;;;;;;;11.73;3.92;;;;;;;17.94;100.00;101815.63;10422410;28;20080;-64
2023/08/18 07:16:59;;;;;;;7.53;3.33;;;;;;;18.08;100.00;101829.84;10415993;28;20109;-65
2023/08/18 07:22:00;;;;;;;7.45;3.05;;;;;;;18.22;100.00;101830.09;10417809;28;20045;-65
2023/08/18 07:27:00;;;;;;;4.38;2.67;;;;;;;18.28;100.00;101829.78;10426617;28;20045;-64
2023/08/18 07:32:01;;;;;;;5.40;3.25;;;;;;;18.34;100.00;101825.03;10421695;28;20173;-64
2023/08/18 07:37:03;;;;;;;7.47;3.10;;;;;;;18.37;100.00;101823.63;10460327;28;20044;-65
2023/08/18 07:42:03;;;;;;;7.00;3.45;;;;;;;18.35;100.00;101819.19;10415288;28;20383;-64
2023/08/18 07:47:04;;;;;;;5.97;3.38;;;;;;;18.39;100.00;101818.59;10419645;28;20038;-65
2023/08/18 07:52:04;;;;;;;4.78;2.80;;;;;;;18.50;100.00;101820.22;10437306;28;20033;-65
2023/08/18 07:57:05;;;;;;;8.32;3.15;;;;;;;18.55;100.00;101820.22;10415950;28;20121;-65
2023/08/18 08:02:05;;;;;;;3.63;2.83;;;;;;;18.40;100.00;101815.53;10421467;28;20037;-65
2023/08/18 08:07:06;;;;;;;5.85;3.53;;;;;;;18.45;100.00;101807.13;10421873;28;20037;-65
2023/08/18 08:12:07;;;;;;;6.32;3.67;;;;;;;18.68;100.00;101802.84;10415085;28;20472;-66
2023/08/18 08:17:07;;;;;;;6.20;3.90;;;;;;;18.96;100.00;101800.50;10421709;28;20045;-65
2023/08/18 08:22:10;;;;;;;7.30;3.67;;;;;;;19.05;100.00;101795.97;10421499;28;20450;-65
2023/08/18 08:27:13;;;;;;;4.40;3.20;;;;;;;19.15;100.00;101798.69;10418966;28;20480;-64
2023/08/18 08:32:14;;;;;;;11.65;3.88;;;;;;;19.21;100.00;101796.72;10420678;28;20069;-65
2023/08/18 08:37:14;;;;;;;5.00;3.63;;;;;;;19.32;100.00;101797.47;10417231;28;20095;-65
2023/08/18 08:42:15;;;;;;;20.05;5.32;;;;;;;19.57;100.00;101807.59;10400992;28;20037;-66
2023/08/18 08:47:15;;;;;;;5.13;3.58;;;;;;;19.62;100.00;101815.13;10420784;28;20378;-66
2023/08/18 08:52:16;;;;;;;4.47;3.53;;;;;;;19.62;100.00;101806.72;10420614;28;20045;-66
2023/08/18 08:57:17;;;;;;;6.18;3.53;;;;;;;19.77;100.00;101789.84;10430093;28;20080;-65
2023/08/18 09:02:18;;;;;;;5.15;3.83;;;;;;;20.13;100.00;101778.28;10468300;28;20037;-65
2023/08/18 09:07:19;;;;;;;7.05;3.65;;;;;;;20.39;100.00;101792.78;10457288;28;20128;-66
2023/08/18 09:12:20;;;;;;;4.75;3.58;;;;;;;20.34;100.00;101801.25;10454699;28;20033;-66
2023/08/18 09:17:22;;;;;;;5.53;3.58;;;;;;;20.27;100.00;101793.22;10422826;28;20037;-66
2023/08/18 09:22:23;;;;;;;7.00;5.07;;;;;;;20.48;100.00;101781.78;10461028;28;20037;-67
2023/08/18 09:27:23;;;;;;;6.68;3.42;;;;;;;20.95;100.00;101782.84;10468035;28;20033;-66
2023/08/18 09:32:24;;;;;;;7.50;3.38;;;;;;;21.26;100.00;101768.38;10474014;28;20037;-66
2023/08/18 09:37:31;;;;;;;5.78;4.00;;;;;;;21.38;100.00;101765.91;10451285;28;20037;-66
2023/08/18 09:42:31;;;;;;;5.80;3.40;;;;;;;21.71;100.00;101772.38;10460112;28;21163;-65
2023/08/18 09:47:32;;;;;;;6.68;4.55;;;;;;;21.82;100.00;101750.59;10462747;28;20672;-66
2023/08/18 09:52:33;;;;;;;5.20;3.55;;;;;;;22.15;100.00;101748.53;10449236;28;20037;-66
2023/08/18 09:57:37;;;;;;;5.85;3.38;;;;;;;22.55;100.00;101742.38;10470781;28;20045;-65
2023/08/18 10:02:38;;;;;;;5.15;3.60;;;;;;;22.81;100.00;101747.44;10464973;28;20041;-66
2023/08/18 10:07:38;;;;;;;6.72;3.65;;;;;;;22.72;100.00;101747.34;10461263;28;20041;-66
2023/08/18 10:12:39;;;;;;;6.90;4.53;;;;;;;22.70;100.00;101742.06;10466997;28;20043;-66
2023/08/18 10:17:39;;;;;;;5.47;3.63;;;;;;;22.80;100.00;101731.72;10466880;28;20086;-65
2023/08/18 10:22:41;;;;;;;6.70;3.67;;;;;;;23.08;100.00;101729.69;10463619;28;20507;-65
2023/08/18 10:27:42;;;;;;;9.13;4.32;;;;;;;23.34;100.00;101729.88;10461033;28;20040;-65
2023/08/18 10:32:42;;;;;;;7.72;3.92;;;;;;;23.62;100.00;101721.25;10441817;28;20037;-66
2023/08/18 10:37:43;;;;;;;7.43;4.20;;;;;;;23.75;100.00;101724.00;10450895;28;20424;-64
2023/08/18 10:42:44;;;;;;;6.22;4.78;;;;;;;23.73;100.00;101715.03;10429946;28;20067;-65
2023/08/18 10:47:44;;;;;;;5.47;3.60;;;;;;;23.83;100.00;101718.75;10459365;28;20416;-65
2023/08/18 10:52:45;;;;;;;7.40;4.30;;;;;;;24.05;100.00;101718.66;10453267;28;20037;-65
2023/08/18 10:57:46;;;;;;;8.27;4.63;;;;;;;24.43;100.00;101711.66;10477788;28;20425;-65
2023/08/18 11:02:50;;;;;;;9.27;4.32;;;;;;;24.84;100.00;101699.13;10473951;28;20037;-65
2023/08/18 11:07:51;;;;;;;8.32;4.80;;;;;;;24.92;100.00;101690.66;10475317;28;20041;-66
2023/08/18 11:12:52;;;;;;;8.52;5.55;;;;;;;24.84;100.00;101688.69;10465210;28;20045;-66
2023/08/18 11:17:53;;;;;;;7.90;5.93;;;;;;;24.44;100.00;101696.44;10405035;28;20052;-66
2023/08/18 11:22:53;;;;;;;9.70;6.03;;;;;;;23.97;100.00;101683.72;10434748;28;20113;-65
2023/08/18 11:27:54;;;;;;;9.00;5.95;;;;;;;24.10;100.00;101686.75;10410501;28;20053;-66
2023/08/18 11:32:54;;;;;;;11.15;6.40;;;;;;;24.57;100.00;101689.84;10413445;28;20042;-66
2023/08/18 11:37:55;;;;;;;9.98;5.85;;;;;;;25.57;100.00;101665.38;10427193;28;20044;-65
2023/08/18 11:42:57;;;;;;;9.20;5.78;;;;;;;26.20;100.00;101657.09;10438155;28;20044;-65
2023/08/18 11:48:03;;;;;;;8.52;5.70;;;;;;;27.20;100.00;101645.13;10451640;28;20140;-65
2023/08/18 11:53:05;;;;;;;7.97;5.43;;;;;;;27.99;100.00;101657.16;10431446;28;20101;-65
2023/08/18 11:58:14;;;;;;;14.13;8.15;;;;;;;28.26;100.00;101632.94;10429752;28;20056;-65
2023/08/18 12:03:25;;;;;;;10.07;6.72;;;;;;;28.32;100.00;101639.16;10478033;28;20036;-66
2023/08/18 12:08:26;;;;;;;9.57;5.85;;;;;;;29.07;100.00;101617.91;10451681;28;20045;-66
2023/08/18 12:13:30;;;;;;;8.32;5.82;;;;;;;29.11;100.00;101614.00;10453826;28;20049;-66
2023/08/18 12:18:30;;;;;;;9.98;6.30;;;;;;;27.96;100.00;101619.06;10432994;28;20085;-66
2023/08/18 12:23:31;;;;;;;8.25;6.55;;;;;;;26.81;100.00;101634.06;10438690;28;20048;-67
2023/08/18 12:28:34;;;;;;;9.48;7.07;;;;;;;25.92;100.00;101639.81;10425680;28;20113;-66
2023/08/18 12:33:35;;;;;;;8.23;5.97;;;;;;;25.45;100.00;101626.59;10437541;28;20293;-66
2023/08/18 12:38:35;;;;;;;10.05;7.13;;;;;;;25.55;100.00;101629.06;10422336;28;20500;-66
2023/08/18 12:43:36;;;;;;;8.50;6.00;;;;;;;25.92;100.00;101609.66;10423255;28;20033;-66
2023/08/18 12:48:37;;;;;;;9.70;6.70;;;;;;;27.09;100.00;101610.81;10431203;28;20052;-66
2023/08/18 12:53:37;;;;;;;18.52;7.47;;;;;;;28.41;100.00;101596.56;10426909;28;20490;-66
2023/08/18 12:58:38;;;;;;;9.32;6.82;;;;;;;29.50;100.00;101579.34;10432260;28;20041;-66
2023/08/18 13:03:38;;;;;;;9.80;6.72;;;;;;;29.04;100.00;101585.41;10435579;28;20041;-66
2023/08/18 13:08:39;;;;;;;10.57;7.20;;;;;;;29.09;100.00;101593.66;10433316;28;20057;-65
2023/08/18 13:13:39;;;;;;;9.32;7.22;;;;;;;28.74;100.00;101591.50;10435628;28;20084;-66
2023/08/18 13:18:40;;;;;;;10.02;6.90;;;;;;;27.87;100.00;101592.91;10436104;28;20038;-66
2023/08/18 13:23:41;;;;;;;7.95;7.07;;;;;;;26.94;100.00;101552.97;10432344;28;20049;-66
2023/08/18 13:28:41;;;;;;;9.15;6.68;;;;;;;27.43;100.00;101584.19;10432707;28;20091;-66
2023/08/18 13:33:42;;;;;;;9.65;6.90;;;;;;;28.98;100.00;101575.53;10429242;28;20033;-66
2023/08/18 13:38:42;;;;;;;9.10;6.38;;;;;;;30.14;100.00;101560.19;10436538;28;20047;-66
2023/08/18 13:43:42;;;;;;;9.02;6.65;;;;;;;30.50;100.00;101556.09;10429948;28;20067;-67
2023/08/18 13:48:43;;;;;;;7.85;6.82;;;;;;;30.98;100.00;101538.75;10433639;28;20048;-67
2023/08/18 13:53:43;;;;;;;9.93;8.07;;;;;;;30.74;100.00;101522.88;10430381;28;20034;-67
2023/08/18 13:58:44;;;;;;;8.90;6.82;;;;;;;30.92;100.00;101543.09;10436459;28;20048;-67
2023/08/18 14:03:44;;;;;;;9.05;6.80;;;;;;;30.83;100.00;101537.63;10432115;28;20056;-66
2023/08/18 14:08:45;;;;;;;11.13;8.27;;;;;;;30.02;100.00;101544.09;10461169;28;20033;-66
2023/08/18 14:13:45;;;;;;;10.13;8.30;;;;;;;30.16;100.00;101527.38;10461245;28;20506;-67
2023/08/18 14:18:46;;;;;;;9.95;7.13;;;;;;;30.15;100.00;101537.06;10458698;28;20049;-66
2023/08/18 14:23:46;;;;;;;8.90;6.68;;;;;;;29.87;100.00;101553.47;10459553;28;20507;-66
2023/08/18 14:28:47;;;;;;;8.90;7.35;;;;;;;29.44;100.00;101536.25;10459998;28;20056;-67
2023/08/18 14:33:47;;;;;;;9.52;7.57;;;;;;;29.31;100.00;101543.19;10435064;28;20037;-67
2023/08/18 14:38:48;;;;;;;9.32;7.00;;;;;;;28.95;100.00;101533.75;10441528;28;20040;-66
2023/08/18 14:43:48;;;;;;;11.25;7.30;;;;;;;28.66;100.00;101535.00;10433088;28;20041;-67
2023/08/18 14:48:49;;;;;;;10.15;7.40;;;;;;;28.69;100.00;101520.94;10435410;28;20037;-66
2023/08/18 14:53:49;;;;;;;9.32;6.53;;;;;;;29.86;100.00;101518.59;10433482;28;20053;-64
2023/08/18 14:58:49;;;;;;;7.05;6.35;;;;;;;30.37;100.00;101509.16;10442747;28;20056;-66
2023/08/18 15:03:50;;;;;;;10.30;6.28;;;;;;;31.37;100.00;101498.78;10436085;28;20037;-66
2023/08/18 15:08:51;;;;;;;10.05;6.00;;;;;;;31.70;100.00;101500.09;10433521;28;20037;-66
2023/08/18 15:13:51;;;;;;;10.45;6.15;;;;;;;32.02;100.00;101488.34;10434734;28;20524;-66
2023/08/18 15:18:52;;;;;;;8.27;6.32;;;;;;;31.34;100.00;101493.88;10440410;28;20042;-66
2023/08/18 15:23:54;;;;;;;7.03;6.30;;;;;;;30.68;100.00;101508.13;10441369;28;20041;-67
2023/08/18 15:28:54;;;;;;;10.32;5.93;;;;;;;30.24;100.00;101505.59;10437779;28;20163;-66
2023/08/18 15:33:55;;;;;;;7.72;6.03;;;;;;;30.97;100.00;101491.63;10452644;28;20168;-66
2023/08/18 15:38:57;;;;;;;8.80;6.78;;;;;;;30.72;100.00;101494.81;10435761;28;20044;-66
2023/08/18 15:43:57;;;;;;;9.38;6.05;;;;;;;30.50;100.00;101484.25;10437312;28;20402;-67
2023/08/18 15:48:58;;;;;;;9.23;7.10;;;;;;;29.44;100.00;101496.53;10429379;28;20034;-66
2023/08/18 15:53:59;;;;;;;7.18;6.10;;;;;;;30.11;100.00;101492.75;10430709;28;20038;-66
2023/08/18 15:59:02;;;;;;;7.22;5.75;;;;;;;31.31;100.00;101466.16;10439328;28;20408;-67
2023/08/18 16:04:03;;;;;;;9.18;6.20;;;;;;;31.54;100.00;101449.88;10418783;28;20080;-66
2023/08/18 16:09:05;;;;;;;8.15;6.03;;;;;;;31.03;100.00;101453.16;10419782;28;20106;-67
2023/08/18 16:14:08;;;;;;;7.50;6.72;;;;;;;30.63;100.00;101443.06;10417534;28;20057;-67
2023/08/18 16:19:08;;;;;;;6.47;5.70;;;;;;;30.87;100.00;101438.22;10417512;28;20120;-67
2023/08/18 16:24:08;;;;;;;8.55;6.90;;;;;;;30.41;100.00;101441.03;10420928;28;20064;-67
2023/08/18 16:29:09;;;;;;;11.00;6.13;;;;;;;30.02;100.00;101449.59;10416150;28;20063;-66
2023/08/18 16:34:09;;;;;;;7.32;6.53;;;;;;;28.99;100.00;101449.63;10417890;28;20052;-66
2023/08/18 16:39:10;;;;;;;13.07;7.43;;;;;;;28.07;100.00;101448.75;10423620;28;20041;-66
2023/08/18 16:44:10;;;;;;;7.38;6.63;;;;;;;27.31;100.00;101448.47;10429075;28;20052;-67
2023/08/18 16:49:11;;;;;;;8.55;7.65;;;;;;;26.59;100.00;101451.69;10434418;28;20037;-66
2023/08/18 16:54:12;;;;;;;10.73;7.40;;;;;;;26.27;100.00;101456.97;10430963;28;20079;-66
2023/08/18 16:59:14;;;;;;;8.75;7.85;;;;;;;26.09;100.00;101461.16;10408286;28;20041;-67
2023/08/18 17:04:15;;;;;;;10.43;8.05;;;;;;;25.76;100.00;101459.91;10408209;28;20049;-66
2023/08/18 17:09:15;;;;;;;10.23;8.80;;;;;;;25.55;100.00;101465.53;10427324;28;20034;-67
2023/08/18 17:14:17;;;;;;;10.88;8.82;;;;;;;25.31;100.00;101462.53;10438041;28;20033;-65
2023/08/18 17:19:20;;;;;;;16.42;8.80;;;;;;;25.17;100.00;101474.81;10425050;28;20060;-67
2023/08/18 17:24:21;;;;;;;11.30;8.25;;;;;;;25.04;100.00;101477.91;10435399;28;20057;-67
2023/08/18 17:29:21;;;;;;;11.55;8.65;;;;;;;24.95;100.00;101475.09;10431057;28;20041;-67
2023/08/18 17:34:21;;;;;;;13.27;8.98;;;;;;;24.82;100.00;101487.41;10438006;28;20037;-66
2023/08/18 17:39:22;;;;;;;12.05;9.38;;;;;;;24.68;100.00;101480.03;10439146;28;20045;-66
2023/08/18 17:44:22;;;;;;;19.55;11.90;;;;;;;24.57;100.00;101487.16;10438219;28;20029;-66
2023/08/18 17:49:23;;;;;;;13.75;10.90;;;;;;;24.43;100.00;101481.69;10444806;28;20718;-65
2023/08/18 17:54:23;;;;;;;14.90;11.27;;;;;;;24.33;100.00;101477.25;10443666;28;20034;-66
2023/08/18 17:59:24;;;;;;;16.70;11.27;;;;;;;24.22;100.00;101481.56;10442779;28;20045;-66
2023/08/18 18:04:24;;;;;;;16.88;10.98;;;;;;;24.08;100.00;101480.91;10443896;28;20045;-64
2023/08/18 18:09:25;;;;;;;15.32;11.13;;;;;;;23.96;100.00;101473.16;10440866;28;20151;-66
2023/08/18 18:14:25;;;;;;;15.38;11.77;;;;;;;23.80;100.00;101478.44;10439597;28;20033;-66
2023/08/18 18:19:26;;;;;;;13.32;11.73;;;;;;;23.64;100.00;101477.22;10439279;28;20459;-66
2023/08/18 18:24:26;;;;;;;14.80;12.23;;;;;;;23.50;100.00;101469.78;10440820;28;20060;-66
2023/08/18 18:29:26;;;;;;;15.43;12.85;;;;;;;23.37;100.00;101481.97;10440730;28;20041;-67
2023/08/18 18:34:27;;;;;;;17.65;13.73;;;;;;;23.24;100.00;101488.53;10447521;28;20045;-66
2023/08/18 18:39:28;;;;;;;18.17;14.10;;;;;;;23.04;100.00;101478.72;10437249;28;20406;-66
2023/08/18 18:44:28;;;;;;;18.33;14.02;;;;;;;22.93;100.00;101472.53;10441299;28;20069;-66
2023/08/18 18:49:29;;;;;;;19.00;14.50;;;;;;;22.71;100.00;101457.41;10437488;28;20067;-66
2023/08/18 18:54:29;;;;;;;19.35;14.35;;;;;;;22.62;100.00;101473.38;10440283;28;20049;-65
2023/08/18 18:59:30;;;;;;;18.90;15.05;;;;;;;22.48;100.00;101473.44;10440657;28;20040;-66
2023/08/18 19:04:30;;;;;;;20.63;16.48;;;;;;;22.35;100.00;101472.38;10432463;28;20067;-66
2023/08/18 19:09:31;;;;;;;17.98;15.40;;;;;;;22.23;100.00;101460.06;10439565;28;20093;-65
2023/08/18 19:14:33;;;;;;;22.77;15.75;;;;;;;22.20;100.00;101455.06;10436956;28;20049;-66
2023/08/18 19:19:33;;;;;;;20.73;15.82;;;;;;;22.10;100.00;101457.00;10440728;28;20051;-66
2023/08/18 19:24:34;;;;;;;24.92;17.85;;;;;;;22.01;100.00;101444.06;10430468;28;20391;-66
2023/08/18 19:29:35;;;;;;;25.17;17.42;;;;;;;21.92;100.00;101447.63;10433131;28;20465;-65
2023/08/18 19:34:35;;;;;;;28.85;19.70;;;;;;;21.84;100.00;101444.75;10445300;28;20045;-65
2023/08/18 19:39:36;;;;;;;27.50;19.50;;;;;;;21.76;100.00;101446.34;10420341;28;20053;-65
2023/08/18 19:44:36;;;;;;;31.02;20.35;;;;;;;21.72;100.00;101453.72;10435509;28;20071;-65
2023/08/18 19:49:37;;;;;;;28.13;20.23;;;;;;;21.68;100.00;101449.88;10434459;28;20045;-65
2023/08/18 19:54:38;;;;;;;29.35;22.25;;;;;;;21.63;100.00;101456.44;10437083;28;20056;-66
2023/08/18 19:59:39;;;;;;;25.60;20.63;;;;;;;21.60;100.00;101462.69;10409723;28;20055;-65
2023/08/18 20:04:39;;;;;;;27.10;21.33;;;;;;;21.52;100.00;101439.03;10429957;28;20041;-65
2023/08/18 20:09:40;;;;;;;29.67;23.30;;;;;;;21.48;100.00;101438.00;10425081;28;20115;-65
2023/08/18 20:14:40;;;;;;;32.42;21.17;;;;;;;21.42;100.00;101436.47;10431045;28;20727;-66
2023/08/18 20:19:41;;;;;;;31.42;23.33;;;;;;;21.38;100.00;101429.81;10429665;28;20068;-66
2023/08/18 20:24:41;;;;;;;30.83;22.65;;;;;;;21.30;100.00;101419.34;10429310;28;20095;-65
2023/08/18 20:29:42;;;;;;;32.25;23.30;;;;;;;21.33;100.00;101418.69;10427932;28;20548;-65
2023/08/18 20:34:42;;;;;;;27.67;21.92;;;;;;;21.32;100.00;101425.47;10470740;28;20070;-66
2023/08/18 20:39:43;;;;;;;32.20;23.73;;;;;;;21.29;100.00;101426.91;10473286;28;20075;-66
2023/08/18 20:44:43;;;;;;;31.38;23.95;;;;;;;21.24;100.00;101426.19;10477138;28;20041;-65
2023/08/18 20:49:44;;;;;;;29.52;22.65;;;;;;;21.17;100.00;101430.25;10481727;28;20489;-65
2023/08/18 20:54:44;;;;;;;32.25;23.00;;;;;;;21.13;100.00;101437.63;10466875;28;20051;-65
2023/08/18 20:59:45;;;;;;;32.08;24.48;;;;;;;21.08;100.00;101448.09;10473490;28;20086;-65
2023/08/18 21:04:45;;;;;;;32.35;24.23;;;;;;;21.04;100.00;101444.25;10472107;28;20063;-65
2023/08/18 21:09:46;;;;;;;34.72;25.30;;;;;;;21.00;100.00;101438.47;10449974;28;20099;-65
2023/08/18 21:14:46;;;;;;;32.72;24.48;;;;;;;21.01;100.00;101423.31;10480162;28;20037;-66
2023/08/18 21:19:47;;;;;;;34.85;25.77;;;;;;;21.03;100.00;101411.81;10485956;28;20041;-66
2023/08/18 21:24:47;;;;;;;33.65;24.75;;;;;;;21.01;100.00;101412.13;10472476;28;20048;-65
2023/08/18 21:29:48;;;;;;;32.95;25.45;;;;;;;20.99;100.00;101408.78;10462703;28;20060;-65
2023/08/18 21:34:48;;;;;;;30.75;23.27;;;;;;;20.97;100.00;101411.06;10449768;28;20040;-65
2023/08/18 21:39:48;;;;;;;30.83;24.85;;;;;;;20.96;100.00;101415.03;10457685;28;20043;-65
2023/08/18 21:44:49;;;;;;;31.65;24.13;;;;;;;20.94;100.00;101411.72;10475073;28;20456;-65
2023/08/18 21:49:49;;;;;;;34.53;24.80;;;;;;;20.93;100.00;101398.84;10479634;28;20341;-64
2023/08/18 21:54:50;;;;;;;32.28;24.67;;;;;;;20.92;100.00;101391.59;10466581;28;20043;-65
2023/08/18 21:59:51;;;;;;;33.08;23.30;;;;;;;20.88;100.00;101396.16;10473627;28;20033;-65
2023/08/18 22:04:51;;;;;;;33.00;23.90;;;;;;;20.85;100.00;101391.19;10464764;28;20037;-64
2023/08/18 22:09:52;;;;;;;31.17;23.50;;;;;;;20.83;100.00;101399.06;10475601;28;20033;-64
2023/08/18 22:14:52;;;;;;;31.17;23.90;;;;;;;20.81;100.00;101395.75;10479482;28;20354;-65
2023/08/18 22:19:53;;;;;;;32.00;22.73;;;;;;;20.80;100.00;101385.72;10488407;28;20055;-65
2023/08/18 22:24:54;;;;;;;33.15;23.15;;;;;;;20.77;100.00;101398.31;10494768;28;20062;-64
2023/08/18 22:29:55;;;;;;;30.33;22.20;;;;;;;20.75;100.00;101398.66;10482463;28;20049;-65
2023/08/18 22:34:55;;;;;;;29.35;22.52;;;;;;;20.73;100.00;101384.16;10481016;28;20216;-65
2023/08/18 22:39:56;;;;;;;27.40;22.33;;;;;;;20.78;100.00;101379.59;10481784;28;20120;-64